createdAt,value
2022-11-13T00:04:26.048Z,67.60
2022-11-13T00:10:05.569Z,67.70
2022-11-13T00:15:45.055Z,68.07
2022-11-13T00:21:25.023Z,68.66
2022-11-13T00:27:04.633Z,67.69
2022-11-13T00:32:43.807Z,67.57
2022-11-13T00:38:22.965Z,67.20
2022-11-13T00:44:04.059Z,68.13
2022-11-13T00:49:43.371Z,68.08
2022-11-13T00:55:22.717Z,67.90
2022-11-13T01:01:06.514Z,68.22
2022-11-13T01:06:46.248Z,68.38
2022-11-13T01:12:25.958Z,68.90
2022-11-13T01:18:05.413Z,69.27
2022-11-13T01:23:44.603Z,69.00
2022-11-13T01:29:24.131Z,68.82
2022-11-13T01:35:03.712Z,68.29
2022-11-13T01:40:46.957Z,68.83
2022-11-13T01:46:27.262Z,68.72
2022-11-13T01:52:08.551Z,68.88
2022-11-13T01:57:48.752Z,68.59
2022-11-13T02:03:28.194Z,68.91
2022-11-13T02:09:08.240Z,68.56
2022-11-13T02:14:50.058Z,68.83
2022-11-13T02:20:40.049Z,68.40
2022-11-13T02:26:21.111Z,68.33
2022-11-13T02:32:00.496Z,68.32
2022-11-13T02:37:39.952Z,68.94
2022-11-13T02:43:19.446Z,68.51
2022-11-13T02:48:58.627Z,68.59
2022-11-13T02:54:37.813Z,68.00
2022-11-13T03:00:17.792Z,67.71
2022-11-13T03:05:56.928Z,68.29
2022-11-13T03:11:36.219Z,68.74
2022-11-13T03:17:15.291Z,68.04
2022-11-13T03:22:54.555Z,68.58
2022-11-13T03:28:34.685Z,68.62
2022-11-13T03:34:14.024Z,68.61
2022-11-13T03:39:53.377Z,68.69
2022-11-13T03:45:32.617Z,67.64
2022-11-13T03:51:11.862Z,67.71
2022-11-13T03:56:51.119Z,68.74
2022-11-13T04:02:30.367Z,69.05
2022-11-13T04:08:09.834Z,68.57
2022-11-13T04:13:49.271Z,68.69
2022-11-13T04:19:28.494Z,69.16
2022-11-13T04:25:07.908Z,68.54
2022-11-13T04:30:47.348Z,69.09
2022-11-13T04:36:26.407Z,68.47
2022-11-13T04:42:24.214Z,68.62
2022-11-13T04:48:03.780Z,68.59
2022-11-13T04:53:43.540Z,68.36
2022-11-13T04:59:23.173Z,69.00
2022-11-13T05:05:05.128Z,68.89
2022-11-13T05:10:44.644Z,68.12
2022-11-13T05:16:23.860Z,67.53
2022-11-13T05:22:03.542Z,68.17
2022-11-13T05:27:42.590Z,68.80
2022-11-13T05:33:21.866Z,68.43
2022-11-13T05:39:01.209Z,68.53
2022-11-13T05:44:40.356Z,68.25
2022-11-13T05:50:20.787Z,68.65
2022-11-13T05:56:08.186Z,68.64
2022-11-13T06:01:47.522Z,68.72
2022-11-13T06:07:27.163Z,68.44
2022-11-13T06:13:06.412Z,68.05
2022-11-13T06:18:46.253Z,67.55
2022-11-13T06:24:25.797Z,67.64
2022-11-13T06:30:05.478Z,68.50
2022-11-13T06:35:44.679Z,69.09
2022-11-13T06:41:25.154Z,68.80
2022-11-13T06:47:04.237Z,68.43
2022-11-13T06:52:43.606Z,68.04
2022-11-13T06:58:23.115Z,68.69
2022-11-13T07:04:02.472Z,68.44
2022-11-13T07:09:42.079Z,68.68
2022-11-13T07:15:21.481Z,68.53
2022-11-13T07:21:05.359Z,69.07
2022-11-13T07:26:44.508Z,68.96
2022-11-13T07:32:23.744Z,70.42
2022-11-13T07:38:03.121Z,69.29
2022-11-13T07:43:42.680Z,69.79
2022-11-13T07:49:22.151Z,69.00
2022-11-13T07:55:01.749Z,70.49
2022-11-13T08:00:41.195Z,69.71
2022-11-13T08:06:21.091Z,69.75
2022-11-13T08:12:00.485Z,69.81
2022-11-13T08:17:40.091Z,69.28
2022-11-13T08:23:19.299Z,69.55
2022-11-13T08:28:58.433Z,69.71
2022-11-13T08:34:37.721Z,69.95
2022-11-13T08:40:17.242Z,70.13
2022-11-13T08:45:56.847Z,70.22
2022-11-13T08:51:36.242Z,70.64
2022-11-13T08:57:15.588Z,70.64
2022-11-13T09:02:58.808Z,73.94
2022-11-13T09:08:38.361Z,70.91
2022-11-13T09:14:17.729Z,70.62
2022-11-13T09:20:02.197Z,70.86
2022-11-13T09:25:43.103Z,70.85
2022-11-13T09:31:22.336Z,70.92
2022-11-13T09:37:01.748Z,70.75
2022-11-13T09:42:41.686Z,71.23
2022-11-13T09:48:24.299Z,71.45
2022-11-13T09:54:07.851Z,71.31
2022-11-13T09:59:47.044Z,71.49
2022-11-13T10:05:26.605Z,71.72
2022-11-13T10:11:12.254Z,72.20
2022-11-13T10:16:55.987Z,71.96
2022-11-13T10:22:52.061Z,74.14
2022-11-13T10:34:33.247Z,71.94
2022-11-13T10:40:23.001Z,72.08
2022-11-13T10:46:04.221Z,73.34
2022-11-13T10:51:43.956Z,71.77
2022-11-13T10:57:34.505Z,71.74
2022-11-13T11:03:15.450Z,71.90
2022-11-13T11:09:04.973Z,72.16
2022-11-13T11:14:53.222Z,72.44
2022-11-13T11:20:50.975Z,72.61
2022-11-13T11:26:32.692Z,72.73
2022-11-13T11:32:15.987Z,72.45
2022-11-13T11:38:05.948Z,73.15
2022-11-13T11:43:51.757Z,72.93
2022-11-13T11:49:31.169Z,73.05
2022-11-13T11:55:28.733Z,72.64
2022-11-13T12:01:18.035Z,72.62
2022-11-13T12:06:57.399Z,72.29
2022-11-13T12:12:36.874Z,72.20
2022-11-13T12:18:36.900Z,72.16
2022-11-13T12:24:31.767Z,71.88
2022-11-13T12:30:18.835Z,71.60
2022-11-13T12:35:58.911Z,71.71
2022-11-13T12:41:44.317Z,71.67
2022-11-13T12:47:24.300Z,71.09
2022-11-13T12:53:05.261Z,70.70
2022-11-13T12:59:30.873Z,71.13
2022-11-13T13:05:07.550Z,70.79
2022-11-13T13:11:05.250Z,70.49
2022-11-13T13:16:44.403Z,70.28
2022-11-13T13:22:28.653Z,70.31
2022-11-13T13:28:07.808Z,70.85
2022-11-13T13:33:59.401Z,70.86
2022-11-13T13:39:38.803Z,70.41
2022-11-13T13:45:25.288Z,70.77
2022-11-13T13:51:10.765Z,70.80
2022-11-13T13:56:50.020Z,70.68
2022-11-13T14:02:29.643Z,70.58
2022-11-13T14:08:20.707Z,70.80
2022-11-13T14:14:29.115Z,70.86
2022-11-13T14:20:12.030Z,70.94
2022-11-13T14:25:51.977Z,70.40
2022-11-13T14:31:34.015Z,70.28
2022-11-13T14:37:19.143Z,70.47
2022-11-13T14:43:02.700Z,70.77
2022-11-13T14:48:51.813Z,70.38
2022-11-13T14:55:13.055Z,70.68
2022-11-13T15:00:36.242Z,70.99
2022-11-13T15:06:17.340Z,70.78
2022-11-13T15:11:57.320Z,70.27
2022-11-13T15:17:37.028Z,70.71
2022-11-13T15:23:17.172Z,70.89
2022-11-13T15:28:56.440Z,71.42
2022-11-13T15:34:35.784Z,70.57
2022-11-13T15:40:15.772Z,70.60
2022-11-13T15:45:55.826Z,71.00
2022-11-13T15:51:35.508Z,70.72
2022-11-13T15:57:20.075Z,70.24
2022-11-13T16:02:59.526Z,70.55
2022-11-13T16:08:39.382Z,70.63
2022-11-13T16:14:24.393Z,70.33
2022-11-13T16:20:07.530Z,70.43
2022-11-13T16:25:48.060Z,70.80
2022-11-13T16:31:27.488Z,70.70
2022-11-13T16:37:12.703Z,71.29
2022-11-13T16:42:52.934Z,72.12
2022-11-13T16:48:32.586Z,70.56
2022-11-13T16:54:12.395Z,70.55
2022-11-13T16:59:52.269Z,70.67
2022-11-13T17:05:31.840Z,70.66
2022-11-13T17:11:12.935Z,70.86
2022-11-13T17:16:52.493Z,71.23
2022-11-13T17:22:31.632Z,71.09
2022-11-13T17:28:11.197Z,71.24
2022-11-13T17:33:54.627Z,71.41
2022-11-13T17:39:33.960Z,71.64
2022-11-13T17:45:13.133Z,71.91
2022-11-13T17:50:56.111Z,71.62
2022-11-13T17:56:37.729Z,71.84
2022-11-13T18:02:17.339Z,71.72
2022-11-13T18:07:56.561Z,71.70
2022-11-13T18:13:36.356Z,71.31
2022-11-13T18:19:15.897Z,71.26
2022-11-13T18:24:57.282Z,71.20
2022-11-13T18:30:39.565Z,71.29
2022-11-13T18:36:19.524Z,70.94
2022-11-13T18:42:00.478Z,71.72
2022-11-13T18:47:40.401Z,71.20
2022-11-13T18:53:21.941Z,70.78
2022-11-13T18:59:02.066Z,70.40
2022-11-13T19:04:41.586Z,70.50
2022-11-13T19:10:20.777Z,71.05
2022-11-13T19:16:08.770Z,70.79
2022-11-13T19:21:48.206Z,70.80
2022-11-13T19:27:27.940Z,70.91
2022-11-13T19:33:07.849Z,70.93
2022-11-13T19:38:47.468Z,70.59
2022-11-13T19:44:27.865Z,71.17
2022-11-13T19:50:10.350Z,71.31
2022-11-13T19:55:56.302Z,70.87
2022-11-13T20:01:35.980Z,70.78
2022-11-13T20:07:15.845Z,70.80
2022-11-13T20:12:55.955Z,71.00
2022-11-13T20:18:36.109Z,71.01
2022-11-13T20:24:15.254Z,70.98
2022-11-13T20:29:54.898Z,71.13
2022-11-13T20:35:34.576Z,71.05
2022-11-13T20:41:13.899Z,71.26
2022-11-13T20:46:55.771Z,71.21
2022-11-13T20:52:38.757Z,71.27
2022-11-13T20:58:18.185Z,71.25
2022-11-13T21:03:59.651Z,71.45
2022-11-13T21:09:39.156Z,71.36
2022-11-13T21:15:19.343Z,71.27
2022-11-13T21:21:06.109Z,71.35
2022-11-13T21:26:47.765Z,71.36
2022-11-13T21:32:29.354Z,71.24
2022-11-13T21:38:08.686Z,71.35
2022-11-13T21:43:48.333Z,71.23
2022-11-13T21:49:27.652Z,71.06
2022-11-13T21:55:07.721Z,71.25
2022-11-13T22:00:47.136Z,71.00
2022-11-13T22:06:30.860Z,70.98
2022-11-13T22:12:10.802Z,71.00
2022-11-13T22:17:50.057Z,71.16
2022-11-13T22:23:29.345Z,71.08
2022-11-13T22:29:09.473Z,70.78
2022-11-13T22:34:48.900Z,70.95
2022-11-13T22:40:27.976Z,71.03
2022-11-13T22:46:08.771Z,71.04
2022-11-13T22:51:48.048Z,71.10
2022-11-13T22:57:27.225Z,70.76
2022-11-13T23:03:06.208Z,70.65
2022-11-13T23:08:46.808Z,70.67
2022-11-13T23:14:26.034Z,70.74
2022-11-13T23:20:05.423Z,70.80
2022-11-13T23:25:44.814Z,71.04
2022-11-13T23:31:24.609Z,71.33
2022-11-13T23:37:03.867Z,71.23
2022-11-13T23:42:54.605Z,71.27
2022-11-13T23:48:35.490Z,71.27
2022-11-13T23:54:15.107Z,71.50
2022-11-13T23:59:54.200Z,71.45
